sensor_id;sensor_type;location;lat;lon;timestamp;P1;durP1;ratioP1;P2;durP2;ratioP2
26478;SDS011;14163;-26.142;27.992;2023-05-16T04:25:39;17.37;;;12.77;;
26478;SDS011;14163;-26.142;27.992;2023-05-16T04:28:10;16.77;;;12.57;;
26478;SDS011;14163;-26.142;27.992;2023-05-16T04:30:39;17.17;;;12.57;;
26478;SDS011;14163;-26.142;27.992;2023-05-16T04:33:09;15.60;;;12.20;;
26478;SDS011;14163;-26.142;27.992;2023-05-16T04:35:40;14.20;;;11.40;;
26478;SDS011;14163;-26.142;27.992;2023-05-16T04:38:10;15.30;;;12.23;;
26478;SDS011;14163;-26.142;27.992;2023-05-16T04:40:43;15.10;;;11.67;;
26478;SDS011;14163;-26.142;27.992;2023-05-16T04:43:14;15.23;;;11.90;;
26478;SDS011;14163;-26.142;27.992;2023-05-16T04:45:44;12.80;;;10.57;;
26478;SDS011;14163;-26.142;27.992;2023-05-16T04:48:15;13.30;;;11.13;;
26478;SDS011;14163;-26.142;27.992;2023-05-16T04:50:46;13.13;;;10.60;;
26478;SDS011;14163;-26.142;27.992;2023-05-16T04:53:15;14.80;;;11.90;;
26478;SDS011;14163;-26.142;27.992;2023-05-16T04:55:47;13.27;;;11.03;;
26478;SDS011;14163;-26.142;27.992;2023-05-16T04:58:17;14.10;;;12.03;;
26478;SDS011;14163;-26.142;27.992;2023-05-16T05:00:48;12.93;;;11.37;;
26478;SDS011;14163;-26.142;27.992;2023-05-16T05:03:20;15.20;;;11.37;;
26478;SDS011;14163;-26.142;27.992;2023-05-16T05:05:50;13.87;;;12.13;;
26478;SDS011;14163;-26.142;27.992;2023-05-16T05:08:20;16.07;;;12.23;;
26478;SDS011;14163;-26.142;27.992;2023-05-16T05:10:51;18.20;;;14.40;;
26478;SDS011;14163;-26.142;27.992;2023-05-16T05:13:23;15.10;;;13.50;;
26478;SDS011;14163;-26.142;27.992;2023-05-16T05:15:52;16.93;;;14.47;;
26478;SDS011;14163;-26.142;27.992;2023-05-16T05:18:21;16.03;;;14.27;;
26478;SDS011;14163;-26.142;27.992;2023-05-16T05:20:50;21.87;;;16.70;;
26478;SDS011;14163;-26.142;27.992;2023-05-16T05:23:20;32.50;;;21.27;;
26478;SDS011;14163;-26.142;27.992;2023-05-16T05:25:52;48.47;;;26.83;;
26478;SDS011;14163;-26.142;27.992;2023-05-16T05:28:21;41.33;;;23.37;;
26478;SDS011;14163;-26.142;27.992;2023-05-16T05:30:50;25.40;;;17.77;;
26478;SDS011;14163;-26.142;27.992;2023-05-16T05:33:24;25.90;;;17.80;;
26478;SDS011;14163;-26.142;27.992;2023-05-16T05:35:54;22.03;;;16.70;;
26478;SDS011;14163;-26.142;27.992;2023-05-16T05:38:24;24.33;;;17.87;;
26478;SDS011;14163;-26.142;27.992;2023-05-16T05:40:55;18.33;;;14.83;;
26478;SDS011;14163;-26.142;27.992;2023-05-16T05:43:24;15.83;;;12.77;;
26478;SDS011;14163;-26.142;27.992;2023-05-16T05:45:54;15.07;;;13.47;;
26478;SDS011;14163;-26.142;27.992;2023-05-16T05:48:23;15.87;;;14.03;;
26478;SDS011;14163;-26.142;27.992;2023-05-16T05:50:54;16.07;;;13.47;;
26478;SDS011;14163;-26.142;27.992;2023-05-16T05:53:24;18.77;;;13.33;;
26478;SDS011;14163;-26.142;27.992;2023-05-16T05:55:55;20.27;;;16.07;;
26478;SDS011;14163;-26.142;27.992;2023-05-16T05:58:25;16.37;;;14.20;;
26478;SDS011;14163;-26.142;27.992;2023-05-16T06:00:54;17.80;;;13.60;;
26478;SDS011;14163;-26.142;27.992;2023-05-16T06:03:24;20.33;;;15.10;;
26478;SDS011;14163;-26.142;27.992;2023-05-16T06:05:54;19.13;;;14.47;;
26478;SDS011;14163;-26.142;27.992;2023-05-16T06:08:23;21.10;;;15.50;;
26478;SDS011;14163;-26.142;27.992;2023-05-16T06:10:56;19.57;;;14.27;;
26478;SDS011;14163;-26.142;27.992;2023-05-16T06:13:25;21.50;;;14.50;;
26478;SDS011;14163;-26.142;27.992;2023-05-16T06:15:55;19.10;;;14.60;;
26478;SDS011;14163;-26.142;27.992;2023-05-16T06:18:25;19.10;;;14.80;;
26478;SDS011;14163;-26.142;27.992;2023-05-16T06:20:55;19.73;;;14.77;;
26478;SDS011;14163;-26.142;27.992;2023-05-16T06:23:24;19.13;;;15.57;;
26478;SDS011;14163;-26.142;27.992;2023-05-16T06:25:55;20.60;;;16.50;;
26478;SDS011;14163;-26.142;27.992;2023-05-16T06:28:24;22.33;;;16.37;;
26478;SDS011;14163;-26.142;27.992;2023-05-16T06:30:54;22.40;;;16.97;;
26478;SDS011;14163;-26.142;27.992;2023-05-16T06:33:24;23.23;;;17.07;;
26478;SDS011;14163;-26.142;27.992;2023-05-16T06:35:54;21.93;;;16.10;;
26478;SDS011;14163;-26.142;27.992;2023-05-16T06:38:23;20.80;;;15.60;;
26478;SDS011;14163;-26.142;27.992;2023-05-16T06:40:53;21.90;;;17.10;;
26478;SDS011;14163;-26.142;27.992;2023-05-16T06:43:25;24.43;;;17.23;;
26478;SDS011;14163;-26.142;27.992;2023-05-16T06:45:55;26.63;;;17.97;;
26478;SDS011;14163;-26.142;27.992;2023-05-16T06:48:24;21.93;;;17.03;;
26478;SDS011;14163;-26.142;27.992;2023-05-16T06:50:54;24.93;;;18.80;;
26478;SDS011;14163;-26.142;27.992;2023-05-16T06:53:24;22.83;;;18.07;;
26478;SDS011;14163;-26.142;27.992;2023-05-16T06:55:56;24.50;;;18.10;;
26478;SDS011;14163;-26.142;27.992;2023-05-16T06:58:26;25.20;;;18.30;;
26478;SDS011;14163;-26.142;27.992;2023-05-16T07:00:55;21.40;;;17.50;;
26478;SDS011;14163;-26.142;27.992;2023-05-16T07:03:26;26.13;;;20.40;;
26478;SDS011;14163;-26.142;27.992;2023-05-16T07:05:56;28.27;;;19.77;;
26478;SDS011;14163;-26.142;27.992;2023-05-16T07:08:25;26.70;;;19.43;;
26478;SDS011;14163;-26.142;27.992;2023-05-16T07:10:57;28.17;;;19.30;;
26478;SDS011;14163;-26.142;27.992;2023-05-16T07:13:27;27.73;;;20.30;;
26478;SDS011;14163;-26.142;27.992;2023-05-16T07:15:57;30.20;;;21.97;;
26478;SDS011;14163;-26.142;27.992;2023-05-16T07:18:27;33.80;;;23.37;;
26478;SDS011;14163;-26.142;27.992;2023-05-16T07:20:56;30.43;;;22.60;;
26478;SDS011;14163;-26.142;27.992;2023-05-16T07:23:26;31.77;;;23.07;;
26478;SDS011;14163;-26.142;27.992;2023-05-16T07:25:57;30.73;;;22.80;;
26478;SDS011;14163;-26.142;27.992;2023-05-16T07:28:27;30.73;;;22.67;;
26478;SDS011;14163;-26.142;27.992;2023-05-16T07:30:57;32.57;;;23.33;;
26478;SDS011;14163;-26.142;27.992;2023-05-16T07:33:27;33.67;;;25.33;;
26478;SDS011;14163;-26.142;27.992;2023-05-16T07:35:57;27.43;;;21.07;;
26478;SDS011;14163;-26.142;27.992;2023-05-16T07:38:29;30.40;;;22.33;;
26478;SDS011;14163;-26.142;27.992;2023-05-16T07:41:00;34.60;;;24.77;;
26478;SDS011;14163;-26.142;27.992;2023-05-16T07:43:30;31.90;;;24.33;;
26478;SDS011;14163;-26.142;27.992;2023-05-16T07:46:02;31.13;;;23.30;;
26478;SDS011;14163;-26.142;27.992;2023-05-16T07:48:32;32.40;;;24.13;;
26478;SDS011;14163;-26.142;27.992;2023-05-16T07:51:02;30.20;;;23.70;;
26478;SDS011;14163;-26.142;27.992;2023-05-16T07:53:32;30.30;;;23.90;;
26478;SDS011;14163;-26.142;27.992;2023-05-16T07:56:04;32.80;;;25.00;;
26478;SDS011;14163;-26.142;27.992;2023-05-16T07:58:35;34.27;;;26.10;;
26478;SDS011;14163;-26.142;27.992;2023-05-16T08:01:05;32.17;;;24.37;;
26478;SDS011;14163;-26.142;27.992;2023-05-16T08:03:35;33.27;;;24.80;;
26478;SDS011;14163;-26.142;27.992;2023-05-16T08:06:06;31.77;;;23.97;;
26478;SDS011;14163;-26.142;27.992;2023-05-16T08:08:36;28.60;;;22.80;;
26478;SDS011;14163;-26.142;27.992;2023-05-16T08:11:08;30.00;;;22.93;;
26478;SDS011;14163;-26.142;27.992;2023-05-16T08:13:38;29.77;;;23.70;;
26478;SDS011;14163;-26.142;27.992;2023-05-16T08:16:09;29.10;;;23.80;;
26478;SDS011;14163;-26.142;27.992;2023-05-16T08:18:39;30.97;;;23.57;;
26478;SDS011;14163;-26.142;27.992;2023-05-16T08:21:10;29.60;;;24.10;;
26478;SDS011;14163;-26.142;27.992;2023-05-16T08:23:41;32.87;;;26.97;;
26478;SDS011;14163;-26.142;27.992;2023-05-16T08:26:16;32.30;;;23.50;;
26478;SDS011;14163;-26.142;27.992;2023-05-16T08:28:47;27.70;;;22.90;;
26478;SDS011;14163;-26.142;27.992;2023-05-16T08:31:17;28.17;;;22.27;;
26478;SDS011;14163;-26.142;27.992;2023-05-16T08:33:46;28.80;;;24.93;;
26478;SDS011;14163;-26.142;27.992;2023-05-16T08:36:16;34.00;;;24.60;;
26478;SDS011;14163;-26.142;27.992;2023-05-16T08:38:53;29.07;;;22.90;;
26478;SDS011;14163;-26.142;27.992;2023-05-16T08:41:24;26.27;;;20.93;;
26478;SDS011;14163;-26.142;27.992;2023-05-16T08:43:54;30.43;;;25.27;;
26478;SDS011;14163;-26.142;27.992;2023-05-16T08:46:24;30.93;;;24.67;;
26478;SDS011;14163;-26.142;27.992;2023-05-16T08:48:57;30.53;;;24.73;;
26478;SDS011;14163;-26.142;27.992;2023-05-16T08:51:31;27.77;;;23.20;;
26478;SDS011;14163;-26.142;27.992;2023-05-16T08:54:03;25.73;;;21.93;;
26478;SDS011;14163;-26.142;27.992;2023-05-16T08:56:38;24.87;;;21.07;;
26478;SDS011;14163;-26.142;27.992;2023-05-16T08:59:10;27.40;;;22.90;;
26478;SDS011;14163;-26.142;27.992;2023-05-16T09:01:41;31.00;;;23.43;;
26478;SDS011;14163;-26.142;27.992;2023-05-16T09:04:14;28.20;;;23.20;;
26478;SDS011;14163;-26.142;27.992;2023-05-16T09:06:44;34.90;;;25.60;;
26478;SDS011;14163;-26.142;27.992;2023-05-16T09:09:14;32.43;;;26.30;;
26478;SDS011;14163;-26.142;27.992;2023-05-16T09:11:51;36.50;;;28.27;;
26478;SDS011;14163;-26.142;27.992;2023-05-16T09:14:21;28.83;;;23.73;;
26478;SDS011;14163;-26.142;27.992;2023-05-16T09:17:02;35.27;;;28.10;;
26478;SDS011;14163;-26.142;27.992;2023-05-16T09:19:36;40.07;;;29.93;;
26478;SDS011;14163;-26.142;27.992;2023-05-16T09:22:06;40.53;;;30.33;;
26478;SDS011;14163;-26.142;27.992;2023-05-16T09:24:40;28.77;;;24.90;;
26478;SDS011;14163;-26.142;27.992;2023-05-16T09:27:13;27.07;;;22.33;;
26478;SDS011;14163;-26.142;27.992;2023-05-16T09:29:43;24.17;;;20.07;;
26478;SDS011;14163;-26.142;27.992;2023-05-16T09:32:19;26.40;;;23.00;;
26478;SDS011;14163;-26.142;27.992;2023-05-16T09:34:48;25.00;;;18.30;;
26478;SDS011;14163;-26.142;27.992;2023-05-16T09:37:21;23.60;;;19.57;;
26478;SDS011;14163;-26.142;27.992;2023-05-16T09:39:51;22.70;;;18.60;;
26478;SDS011;14163;-26.142;27.992;2023-05-16T09:42:23;22.47;;;19.30;;
26478;SDS011;14163;-26.142;27.992;2023-05-16T09:44:53;20.90;;;17.90;;
26478;SDS011;14163;-26.142;27.992;2023-05-16T09:47:31;21.73;;;18.00;;
26478;SDS011;14163;-26.142;27.992;2023-05-16T09:50:04;20.60;;;17.57;;
26478;SDS011;14163;-26.142;27.992;2023-05-16T09:52:34;22.80;;;19.50;;
26478;SDS011;14163;-26.142;27.992;2023-05-16T09:55:06;20.57;;;18.37;;
26478;SDS011;14163;-26.142;27.992;2023-05-16T09:57:40;16.97;;;15.17;;
26478;SDS011;14163;-26.142;27.992;2023-05-16T10:00:11;17.30;;;15.37;;
26478;SDS011;14163;-26.142;27.992;2023-05-16T17:23:01;52.77;;;40.37;;
26478;SDS011;14163;-26.142;27.992;2023-05-16T17:25:32;54.77;;;40.87;;
26478;SDS011;14163;-26.142;27.992;2023-05-16T17:28:03;55.13;;;39.83;;
26478;SDS011;14163;-26.142;27.992;2023-05-16T17:30:33;54.10;;;41.97;;
26478;SDS011;14163;-26.142;27.992;2023-05-16T17:33:03;58.20;;;44.13;;
26478;SDS011;14163;-26.142;27.992;2023-05-16T17:35:34;54.80;;;44.60;;
26478;SDS011;14163;-26.142;27.992;2023-05-16T17:38:07;58.30;;;45.67;;
26478;SDS011;14163;-26.142;27.992;2023-05-16T17:40:37;59.40;;;44.90;;
26478;SDS011;14163;-26.142;27.992;2023-05-16T17:43:07;56.07;;;42.77;;
26478;SDS011;14163;-26.142;27.992;2023-05-16T17:45:37;52.80;;;43.37;;
26478;SDS011;14163;-26.142;27.992;2023-05-16T17:48:07;57.90;;;45.40;;
26478;SDS011;14163;-26.142;27.992;2023-05-16T17:50:36;57.73;;;42.97;;
26478;SDS011;14163;-26.142;27.992;2023-05-16T17:53:08;61.17;;;48.80;;
26478;SDS011;14163;-26.142;27.992;2023-05-16T17:55:37;57.23;;;45.17;;
26478;SDS011;14163;-26.142;27.992;2023-05-16T17:58:07;56.33;;;45.07;;
26478;SDS011;14163;-26.142;27.992;2023-05-16T18:00:37;61.70;;;48.60;;
26478;SDS011;14163;-26.142;27.992;2023-05-16T18:03:06;61.10;;;48.57;;
26478;SDS011;14163;-26.142;27.992;2023-05-16T18:07:19;62.70;;;45.93;;
26478;SDS011;14163;-26.142;27.992;2023-05-16T18:09:49;60.60;;;46.50;;
26478;SDS011;14163;-26.142;27.992;2023-05-16T18:12:18;61.67;;;46.53;;
26478;SDS011;14163;-26.142;27.992;2023-05-16T18:14:47;65.60;;;51.23;;
26478;SDS011;14163;-26.142;27.992;2023-05-16T18:17:17;69.60;;;50.80;;
26478;SDS011;14163;-26.142;27.992;2023-05-16T18:19:46;74.97;;;52.70;;
26478;SDS011;14163;-26.142;27.992;2023-05-16T18:22:15;68.70;;;53.00;;
26478;SDS011;14163;-26.142;27.992;2023-05-16T18:24:46;67.00;;;52.87;;
26478;SDS011;14163;-26.142;27.992;2023-05-16T18:27:15;69.67;;;52.53;;
26478;SDS011;14163;-26.142;27.992;2023-05-16T18:29:44;73.77;;;54.80;;
26478;SDS011;14163;-26.142;27.992;2023-05-16T18:32:13;75.63;;;55.97;;
26478;SDS011;14163;-26.142;27.992;2023-05-16T18:34:43;68.60;;;53.20;;
26478;SDS011;14163;-26.142;27.992;2023-05-16T18:37:12;72.23;;;54.20;;
26478;SDS011;14163;-26.142;27.992;2023-05-16T18:39:43;62.50;;;50.70;;
26478;SDS011;14163;-26.142;27.992;2023-05-16T18:42:15;68.30;;;51.90;;
26478;SDS011;14163;-26.142;27.992;2023-05-16T18:44:44;69.00;;;51.90;;
26478;SDS011;14163;-26.142;27.992;2023-05-16T18:47:15;66.07;;;49.07;;
26478;SDS011;14163;-26.142;27.992;2023-05-16T18:49:45;65.00;;;50.30;;
26478;SDS011;14163;-26.142;27.992;2023-05-16T18:52:14;56.77;;;45.50;;
26478;SDS011;14163;-26.142;27.992;2023-05-16T18:54:45;63.50;;;50.63;;
26478;SDS011;14163;-26.142;27.992;2023-05-16T18:57:14;68.60;;;50.50;;
26478;SDS011;14163;-26.142;27.992;2023-05-16T18:59:44;61.00;;;48.97;;
26478;SDS011;14163;-26.142;27.992;2023-05-16T19:02:13;74.33;;;55.80;;
26478;SDS011;14163;-26.142;27.992;2023-05-16T19:04:42;83.23;;;56.90;;
26478;SDS011;14163;-26.142;27.992;2023-05-16T19:07:11;63.03;;;52.07;;
26478;SDS011;14163;-26.142;27.992;2023-05-16T19:09:40;67.00;;;51.37;;
26478;SDS011;14163;-26.142;27.992;2023-05-16T19:12:13;65.80;;;50.03;;
26478;SDS011;14163;-26.142;27.992;2023-05-16T19:14:42;61.70;;;49.00;;
26478;SDS011;14163;-26.142;27.992;2023-05-16T19:17:11;67.70;;;49.87;;
26478;SDS011;14163;-26.142;27.992;2023-05-16T19:19:40;58.17;;;47.30;;
26478;SDS011;14163;-26.142;27.992;2023-05-16T19:22:09;55.50;;;45.30;;
26478;SDS011;14163;-26.142;27.992;2023-05-16T19:24:39;57.23;;;46.47;;
26478;SDS011;14163;-26.142;27.992;2023-05-16T19:27:08;53.30;;;45.83;;
26478;SDS011;14163;-26.142;27.992;2023-05-16T19:29:39;56.07;;;44.93;;
26478;SDS011;14163;-26.142;27.992;2023-05-16T19:32:08;59.60;;;45.40;;
26478;SDS011;14163;-26.142;27.992;2023-05-16T19:34:38;54.93;;;44.00;;
26478;SDS011;14163;-26.142;27.992;2023-05-16T19:37:07;57.03;;;45.47;;
26478;SDS011;14163;-26.142;27.992;2023-05-16T19:39:37;58.23;;;47.13;;
26478;SDS011;14163;-26.142;27.992;2023-05-16T19:42:07;62.50;;;48.20;;
26478;SDS011;14163;-26.142;27.992;2023-05-16T19:44:37;62.10;;;49.20;;
26478;SDS011;14163;-26.142;27.992;2023-05-16T19:47:09;59.67;;;48.40;;
26478;SDS011;14163;-26.142;27.992;2023-05-16T19:49:39;59.83;;;47.93;;
26478;SDS011;14163;-26.142;27.992;2023-05-16T19:52:09;67.87;;;51.30;;
26478;SDS011;14163;-26.142;27.992;2023-05-16T19:54:39;63.37;;;49.87;;
26478;SDS011;14163;-26.142;27.992;2023-05-16T19:57:09;63.43;;;49.00;;
26478;SDS011;14163;-26.142;27.992;2023-05-16T19:59:42;60.07;;;48.30;;
26478;SDS011;14163;-26.142;27.992;2023-05-16T20:02:13;65.07;;;51.63;;
26478;SDS011;14163;-26.142;27.992;2023-05-16T20:04:44;78.13;;;55.47;;
26478;SDS011;14163;-26.142;27.992;2023-05-16T20:07:14;75.97;;;53.00;;
26478;SDS011;14163;-26.142;27.992;2023-05-16T20:09:44;67.97;;;51.40;;
26478;SDS011;14163;-26.142;27.992;2023-05-16T20:12:14;65.73;;;49.40;;
26478;SDS011;14163;-26.142;27.992;2023-05-16T20:14:46;64.70;;;50.13;;
26478;SDS011;14163;-26.142;27.992;2023-05-16T20:17:16;66.17;;;50.60;;
26478;SDS011;14163;-26.142;27.992;2023-05-16T20:19:45;69.83;;;51.27;;
26478;SDS011;14163;-26.142;27.992;2023-05-16T20:22:14;71.27;;;51.40;;
26478;SDS011;14163;-26.142;27.992;2023-05-16T20:24:44;69.70;;;50.57;;
26478;SDS011;14163;-26.142;27.992;2023-05-16T20:27:13;69.37;;;50.93;;
26478;SDS011;14163;-26.142;27.992;2023-05-16T20:29:42;73.53;;;51.13;;
26478;SDS011;14163;-26.142;27.992;2023-05-16T20:32:14;71.27;;;47.60;;
26478;SDS011;14163;-26.142;27.992;2023-05-16T20:34:43;74.23;;;49.37;;
26478;SDS011;14163;-26.142;27.992;2023-05-16T20:37:12;82.97;;;55.37;;
26478;SDS011;14163;-26.142;27.992;2023-05-16T20:39:42;75.20;;;50.50;;
26478;SDS011;14163;-26.142;27.992;2023-05-16T20:42:11;73.43;;;51.43;;
26478;SDS011;14163;-26.142;27.992;2023-05-16T20:44:40;73.77;;;48.40;;
26478;SDS011;14163;-26.142;27.992;2023-05-16T20:47:11;68.83;;;48.43;;
26478;SDS011;14163;-26.142;27.992;2023-05-16T20:49:41;74.90;;;51.90;;
26478;SDS011;14163;-26.142;27.992;2023-05-16T20:52:10;72.40;;;49.27;;
26478;SDS011;14163;-26.142;27.992;2023-05-16T20:54:39;75.23;;;48.37;;
